createdAt,value
2022-11-21T00:01:18.635Z,-4.20
2022-11-21T00:03:52.538Z,-4.20
2022-11-21T00:06:27.254Z,-4.20
2022-11-21T00:09:01.477Z,-4.20
2022-11-21T00:11:35.706Z,-4.20
2022-11-21T00:14:09.250Z,-4.20
2022-11-21T00:16:46.336Z,-4.30
2022-11-21T00:19:17.344Z,-4.30
2022-11-21T00:21:51.459Z,-4.30
2022-11-21T00:24:27.476Z,-4.30
2022-11-21T00:27:01.432Z,-4.40
2022-11-21T00:29:35.215Z,-4.40
2022-11-21T00:32:10.361Z,-4.40
2022-11-21T00:34:44.471Z,-4.50
2022-11-21T00:37:18.558Z,-4.50
2022-11-21T00:39:52.323Z,-4.50
2022-11-21T00:42:27.025Z,-4.50
2022-11-21T00:45:04.803Z,-4.50
2022-11-21T00:47:41.562Z,-4.50
2022-11-21T00:50:15.342Z,-4.50
2022-11-21T00:52:49.381Z,-4.50
2022-11-21T00:55:23.369Z,-4.50
2022-11-21T00:57:57.457Z,-4.50
2022-11-21T01:00:31.554Z,-4.50
2022-11-21T01:03:08.318Z,-4.40
2022-11-21T01:05:42.429Z,-4.50
2022-11-21T01:08:16.360Z,-4.40
2022-11-21T01:10:47.343Z,-4.40
2022-11-21T01:13:21.486Z,-4.30
2022-11-21T01:15:55.571Z,-4.30
2022-11-21T01:18:32.093Z,-4.30
2022-11-21T01:21:04.601Z,-4.20
2022-11-21T01:23:38.315Z,-4.20
2022-11-21T01:26:13.810Z,-4.20
2022-11-21T01:28:48.922Z,-4.10
2022-11-21T01:31:22.773Z,-4.00
2022-11-21T01:33:59.494Z,-4.00
2022-11-21T01:36:34.136Z,-4.00
2022-11-21T01:39:06.758Z,-3.90
2022-11-21T01:41:40.833Z,-3.90
2022-11-21T01:44:17.356Z,-3.80
2022-11-21T01:46:51.544Z,-3.80
2022-11-21T01:49:28.597Z,-3.80
2022-11-21T01:52:03.014Z,-3.70
2022-11-21T01:54:36.946Z,-3.70
2022-11-21T01:57:11.735Z,-3.60
2022-11-21T01:59:46.748Z,-3.60
2022-11-21T02:02:20.971Z,-3.50
2022-11-21T02:04:57.399Z,-3.50
2022-11-21T02:07:31.638Z,-3.40
2022-11-21T02:10:05.591Z,-3.40
2022-11-21T02:12:41.241Z,-3.30
2022-11-21T02:15:15.421Z,-3.30
2022-11-21T02:17:49.514Z,-3.20
2022-11-21T02:20:26.601Z,-3.20
2022-11-21T02:23:02.073Z,-3.10
2022-11-21T02:25:37.335Z,-3.10
2022-11-21T02:28:12.173Z,-3.10
2022-11-21T02:30:44.664Z,-3.10
2022-11-21T02:33:18.188Z,-3.00
2022-11-21T02:35:58.479Z,-3.00
2022-11-21T02:38:32.568Z,-2.90
2022-11-21T02:41:10.651Z,-2.90
2022-11-21T02:43:45.631Z,-2.90
2022-11-21T02:46:19.219Z,-2.80
2022-11-21T02:48:53.228Z,-2.80
2022-11-21T02:51:25.293Z,-2.80
2022-11-21T02:53:59.487Z,-2.70
2022-11-21T02:56:36.106Z,-2.70
2022-11-21T02:59:10.592Z,-2.70
2022-11-21T03:01:44.567Z,-2.60
2022-11-21T03:04:18.581Z,-2.60
2022-11-21T03:06:52.538Z,-2.00
2022-11-21T03:09:26.414Z,-2.60
2022-11-21T03:12:03.130Z,-2.50
2022-11-21T03:14:35.447Z,-2.50
2022-11-21T03:17:10.401Z,-2.50
2022-11-21T03:19:44.130Z,-2.40
2022-11-21T03:22:16.764Z,-2.40
2022-11-21T03:24:50.459Z,-2.40
2022-11-21T03:27:27.934Z,-2.30
2022-11-21T03:30:01.415Z,-2.30
2022-11-21T03:32:35.433Z,-2.30
2022-11-21T03:35:10.003Z,-2.30
2022-11-21T03:37:43.398Z,-2.20
2022-11-21T03:40:17.290Z,-2.20
2022-11-21T03:42:54.492Z,-2.10
2022-11-21T03:45:28.454Z,-2.10
2022-11-21T03:48:02.424Z,-2.10
2022-11-21T03:50:36.784Z,-2.10
2022-11-21T03:53:10.313Z,-2.00
2022-11-21T03:55:45.633Z,-2.00
2022-11-21T03:58:22.729Z,-2.00
2022-11-21T04:00:56.284Z,-1.90
2022-11-21T04:03:30.262Z,-1.90
2022-11-21T04:06:04.468Z,-1.90
2022-11-21T04:08:38.466Z,-1.90
2022-11-21T04:11:12.659Z,-1.90
2022-11-21T04:13:49.167Z,-1.80
2022-11-21T04:16:21.435Z,-1.80
2022-11-21T04:18:55.436Z,-1.80
2022-11-21T04:21:29.414Z,-1.80
2022-11-21T04:24:03.538Z,-1.80
2022-11-21T04:26:37.421Z,-1.80
2022-11-21T04:29:14.449Z,-1.80
2022-11-21T04:31:48.459Z,-1.80
2022-11-21T04:34:22.693Z,-1.80
2022-11-21T04:36:56.626Z,-1.80
2022-11-21T04:39:30.291Z,-1.80
2022-11-21T04:42:04.281Z,-1.80
2022-11-21T04:44:40.951Z,-1.70
2022-11-21T04:47:14.558Z,-1.70
2022-11-21T04:49:48.805Z,-1.70
2022-11-21T04:52:22.432Z,-1.70
2022-11-21T04:54:56.494Z,-1.60
2022-11-21T04:57:30.459Z,-1.60
2022-11-21T05:00:07.614Z,-1.60
2022-11-21T05:02:41.374Z,-1.60
2022-11-21T05:05:15.288Z,-1.40
2022-11-21T05:07:49.293Z,-1.50
2022-11-21T05:10:23.426Z,-1.50
2022-11-21T05:13:13.169Z,-1.50
2022-11-21T05:15:51.750Z,-1.50
2022-11-21T05:18:25.477Z,-1.50
2022-11-21T05:21:00.629Z,-1.40
2022-11-21T05:23:34.513Z,-1.40
2022-11-21T05:26:08.528Z,-1.40
2022-11-21T05:28:42.529Z,-1.40
2022-11-21T05:31:19.167Z,-1.30
2022-11-21T05:33:53.303Z,-1.30
2022-11-21T05:36:27.475Z,-1.30
2022-11-21T05:39:01.592Z,-1.30
2022-11-21T05:41:35.321Z,-1.30
2022-11-21T05:44:07.052Z,-1.30
2022-11-21T05:46:43.363Z,-1.30
2022-11-21T05:49:17.379Z,-1.20
2022-11-21T05:51:51.313Z,-1.20
2022-11-21T05:54:25.341Z,-1.20
2022-11-21T05:56:59.491Z,-1.20
2022-11-21T05:59:33.350Z,-1.20
2022-11-21T06:02:22.973Z,-1.20
2022-11-21T06:04:56.514Z,-1.20
2022-11-21T06:07:30.426Z,-1.20
2022-11-21T06:10:04.472Z,-1.20
2022-11-21T06:12:38.588Z,-1.10
2022-11-21T06:15:12.857Z,-1.10
2022-11-21T06:17:48.971Z,-1.10
2022-11-21T06:20:22.524Z,-1.10
2022-11-21T06:22:57.961Z,-1.10
2022-11-21T06:25:31.307Z,-1.10
2022-11-21T06:28:05.473Z,-1.00
2022-11-21T06:30:40.603Z,-0.90
2022-11-21T06:33:19.381Z,-0.90
2022-11-21T06:35:54.743Z,-0.90
2022-11-21T06:38:28.828Z,-0.90
2022-11-21T06:41:02.708Z,-1.00
2022-11-21T06:43:38.445Z,-0.90
2022-11-21T06:46:12.661Z,0.10
2022-11-21T06:48:50.531Z,-1.00
2022-11-21T06:51:29.514Z,-1.00
2022-11-21T06:54:03.731Z,-1.00
2022-11-21T06:56:39.864Z,-1.00
2022-11-21T06:59:14.689Z,-1.00
2022-11-21T07:01:51.358Z,-1.00
2022-11-21T07:04:26.539Z,-1.00
2022-11-21T07:07:04.860Z,-0.90
2022-11-21T07:09:45.109Z,-0.90
2022-11-21T07:12:45.332Z,-0.90
2022-11-21T07:15:20.455Z,-0.90
2022-11-21T07:17:55.157Z,-0.90
2022-11-21T07:20:29.331Z,-0.90
2022-11-21T07:23:06.481Z,-0.80
2022-11-21T07:25:43.111Z,-0.80
2022-11-21T07:28:16.071Z,-0.80
2022-11-21T07:30:52.018Z,-0.80
2022-11-21T07:33:25.633Z,-0.70
2022-11-21T07:36:00.015Z,-0.70
2022-11-21T07:38:37.017Z,-0.60
2022-11-21T07:41:13.189Z,-0.60
2022-11-21T07:43:51.332Z,-0.60
2022-11-21T07:46:25.898Z,-0.50
2022-11-21T07:49:03.286Z,-0.50
2022-11-21T07:51:39.529Z,-0.40
2022-11-21T07:54:16.641Z,-0.40
2022-11-21T07:56:51.656Z,-0.30
2022-11-21T07:59:27.336Z,-0.30
2022-11-21T08:02:01.810Z,-0.30
2022-11-21T08:04:39.217Z,-0.20
2022-11-21T08:07:14.095Z,-0.20
2022-11-21T08:09:53.012Z,-0.10
2022-11-21T08:12:29.351Z,-0.10
2022-11-21T08:15:07.428Z,0.00
2022-11-21T08:17:44.863Z,0.00
2022-11-21T08:20:19.694Z,0.10
2022-11-21T08:22:54.143Z,0.10
2022-11-21T08:25:29.894Z,0.10
2022-11-21T08:28:04.403Z,0.20
2022-11-21T08:30:40.345Z,0.20
2022-11-21T08:33:15.039Z,0.30
2022-11-21T08:35:50.884Z,0.30
2022-11-21T08:38:28.531Z,0.30
2022-11-21T08:41:17.995Z,0.40
2022-11-21T08:43:52.720Z,0.40
2022-11-21T08:46:30.470Z,0.50
2022-11-21T08:49:05.352Z,0.50
2022-11-21T08:51:40.349Z,0.50
2022-11-21T08:54:15.823Z,0.60
2022-11-21T08:56:56.853Z,0.60
2022-11-21T08:59:36.477Z,0.70
2022-11-21T09:02:12.917Z,0.80
2022-11-21T09:04:46.641Z,0.80
2022-11-21T09:07:23.510Z,0.80
2022-11-21T09:09:58.576Z,0.90
2022-11-21T09:12:37.038Z,1.00
2022-11-21T09:15:24.781Z,1.00
2022-11-21T09:18:08.372Z,1.10
2022-11-21T09:20:44.086Z,1.20
2022-11-21T09:23:18.289Z,1.20
2022-11-21T09:25:56.464Z,1.30
2022-11-21T09:28:36.917Z,1.30
2022-11-21T09:31:18.351Z,1.40
2022-11-21T09:33:56.150Z,1.40
2022-11-21T09:36:32.127Z,1.50
2022-11-21T09:39:06.080Z,1.50
2022-11-21T09:41:56.434Z,1.50
2022-11-21T09:44:35.486Z,1.60
2022-11-21T09:47:14.513Z,1.60
2022-11-21T09:49:51.877Z,1.70
2022-11-21T09:52:26.867Z,1.70
2022-11-21T09:55:03.283Z,1.80
2022-11-21T09:57:37.985Z,1.80
2022-11-21T10:00:14.888Z,1.90
2022-11-21T10:02:51.892Z,1.90
2022-11-21T10:05:26.853Z,2.00
2022-11-21T10:08:01.612Z,2.10
2022-11-21T10:10:38.818Z,2.10
2022-11-21T10:13:17.335Z,2.20
2022-11-21T10:15:56.929Z,2.30
2022-11-21T10:18:52.419Z,2.40
2022-11-21T10:21:30.983Z,2.40
2022-11-21T10:24:07.958Z,2.50
2022-11-21T10:26:44.015Z,2.60
2022-11-21T10:29:24.671Z,2.70
2022-11-21T10:31:59.836Z,2.70
2022-11-21T10:34:37.603Z,2.80
2022-11-21T10:37:14.334Z,2.90
2022-11-21T10:39:50.205Z,2.90
2022-11-21T10:42:29.374Z,3.00
2022-11-21T10:45:16.336Z,3.00
2022-11-21T10:47:51.238Z,3.10
2022-11-21T10:50:35.278Z,3.10
2022-11-21T10:53:24.512Z,3.20
2022-11-21T10:56:03.858Z,3.20
2022-11-21T10:58:40.463Z,3.30
2022-11-21T11:01:48.251Z,3.30
2022-11-21T11:04:28.554Z,3.30
2022-11-21T11:07:16.838Z,3.40
2022-11-21T11:09:53.221Z,3.40
2022-11-21T11:12:53.377Z,3.50
2022-11-21T11:15:31.956Z,3.50
2022-11-21T11:18:09.879Z,3.60
2022-11-21T11:20:45.187Z,3.60
2022-11-21T11:23:27.084Z,3.70
2022-11-21T11:26:04.112Z,3.70
2022-11-21T11:28:37.875Z,3.80
2022-11-21T11:31:13.080Z,3.80
2022-11-21T11:33:54.831Z,3.80
2022-11-21T11:36:37.929Z,3.90
2022-11-21T11:39:22.188Z,3.90
2022-11-21T11:42:23.677Z,3.90
2022-11-21T11:45:09.712Z,3.90
2022-11-21T11:47:50.470Z,3.90
2022-11-21T11:50:31.473Z,4.00
2022-11-21T11:53:07.513Z,4.00
2022-11-21T11:55:47.686Z,4.00
2022-11-21T11:58:24.297Z,4.00
2022-11-21T12:01:01.008Z,4.00
2022-11-21T12:03:37.667Z,4.00
2022-11-21T12:06:14.427Z,4.00
2022-11-21T12:08:54.222Z,4.00
2022-11-21T12:11:45.398Z,3.90
2022-11-21T12:14:42.745Z,3.90
2022-11-21T12:17:16.964Z,3.90
2022-11-21T12:19:57.457Z,3.90
2022-11-21T12:22:33.007Z,3.90
2022-11-21T12:25:09.040Z,3.80
2022-11-21T12:27:47.211Z,3.80
2022-11-21T12:30:37.705Z,3.80
2022-11-21T12:33:14.153Z,3.70
2022-11-21T12:35:53.810Z,3.70
2022-11-21T12:38:44.597Z,3.60
2022-11-21T12:41:33.808Z,3.60
2022-11-21T12:44:14.485Z,3.40
2022-11-21T12:46:51.466Z,3.40
2022-11-21T12:49:40.200Z,3.30
2022-11-21T12:52:27.879Z,3.30
2022-11-21T12:55:13.338Z,3.30
2022-11-21T12:57:54.456Z,3.20
2022-11-21T13:00:36.692Z,3.20
2022-11-21T13:03:23.423Z,3.20
2022-11-21T13:05:57.695Z,3.20
2022-11-21T13:08:32.468Z,3.10
2022-11-21T13:11:21.690Z,3.10
2022-11-21T13:14:00.617Z,3.20
2022-11-21T13:16:45.217Z,3.20
2022-11-21T13:19:21.307Z,3.20
2022-11-21T13:21:56.423Z,3.20
2022-11-21T13:24:47.826Z,3.10
2022-11-21T13:27:43.713Z,3.10
2022-11-21T13:30:23.713Z,3.10
2022-11-21T13:33:01.063Z,3.10
2022-11-21T13:35:50.837Z,3.10
2022-11-21T13:38:28.621Z,3.10
2022-11-21T13:41:17.920Z,3.10
2022-11-21T13:43:52.415Z,3.00
2022-11-21T13:46:41.475Z,3.00
2022-11-21T13:49:16.366Z,3.00
2022-11-21T13:51:53.183Z,2.90
2022-11-21T13:54:35.046Z,2.90
2022-11-21T13:57:12.613Z,2.90
2022-11-21T13:59:57.482Z,2.80
2022-11-21T14:02:53.536Z,2.80
2022-11-21T14:05:32.844Z,2.70
2022-11-21T14:08:20.889Z,2.60
2022-11-21T14:10:58.519Z,2.60
2022-11-21T14:13:35.147Z,2.50
2022-11-21T14:16:12.185Z,2.50
2022-11-21T14:18:47.433Z,2.40
2022-11-21T14:21:23.319Z,2.40
2022-11-21T14:23:58.041Z,2.30
2022-11-21T14:26:36.411Z,2.30
2022-11-21T14:29:22.614Z,2.20
2022-11-21T14:31:57.355Z,2.20
2022-11-21T14:34:34.516Z,2.20
2022-11-21T14:37:09.638Z,2.10
2022-11-21T14:39:45.155Z,2.10
2022-11-21T14:42:23.190Z,2.10
2022-11-21T14:45:09.149Z,2.00
2022-11-21T14:47:40.397Z,2.00
2022-11-21T14:50:24.247Z,1.90
2022-11-21T14:53:01.370Z,1.90
2022-11-21T14:55:34.111Z,1.90
2022-11-21T14:58:10.816Z,1.90
2022-11-21T15:00:59.098Z,1.80
2022-11-21T15:03:33.562Z,1.80
2022-11-21T15:06:08.773Z,1.80
2022-11-21T15:11:38.022Z,1.70
2022-11-21T15:14:19.291Z,1.70
2022-11-21T15:16:54.129Z,1.70
2022-11-21T15:19:28.140Z,1.70
2022-11-21T15:22:04.443Z,1.70
2022-11-21T15:24:42.747Z,1.60
2022-11-21T15:27:31.455Z,1.60
2022-11-21T15:30:19.500Z,1.60
2022-11-21T15:33:03.298Z,1.60
2022-11-21T15:35:54.003Z,1.50
2022-11-21T15:38:28.437Z,1.40
2022-11-21T15:41:17.235Z,1.40
2022-11-21T15:43:51.784Z,1.30
2022-11-21T15:46:29.236Z,1.30
2022-11-21T15:49:31.091Z,1.20
2022-11-21T15:52:13.064Z,1.20
2022-11-21T15:54:47.261Z,1.20
2022-11-21T15:57:22.707Z,1.20
2022-11-21T15:59:57.008Z,1.20
2022-11-21T16:02:33.818Z,1.20
2022-11-21T16:05:08.917Z,1.20
2022-11-21T16:07:42.904Z,1.20
2022-11-21T16:10:24.410Z,1.20
2022-11-21T16:13:01.718Z,1.10
2022-11-21T16:15:35.590Z,1.10
2022-11-21T16:18:12.287Z,1.20
2022-11-21T16:20:46.538Z,1.10
2022-11-21T16:23:20.552Z,1.20
2022-11-21T16:25:57.457Z,1.10
2022-11-21T16:28:31.649Z,1.10
2022-11-21T16:31:05.440Z,1.10
2022-11-21T16:33:42.778Z,1.10
2022-11-21T16:36:16.916Z,1.10
2022-11-21T16:38:50.635Z,1.10
2022-11-21T16:41:24.722Z,1.10
2022-11-21T16:43:58.972Z,1.10
2022-11-21T16:46:32.516Z,1.10
2022-11-21T16:49:09.752Z,1.10
2022-11-21T16:51:43.830Z,1.10
2022-11-21T16:54:17.686Z,1.10
2022-11-21T16:56:49.622Z,1.10
2022-11-21T16:59:23.425Z,1.10
2022-11-21T17:01:57.514Z,1.10
2022-11-21T17:04:35.316Z,1.10
2022-11-21T17:07:09.888Z,1.10
2022-11-21T17:09:43.785Z,1.20
2022-11-21T17:12:17.544Z,1.10
2022-11-21T17:14:51.740Z,1.10
2022-11-21T17:17:25.805Z,1.10
2022-11-21T17:20:02.422Z,1.10
2022-11-21T17:22:36.633Z,1.10
2022-11-21T17:25:11.336Z,1.10
2022-11-21T17:27:47.182Z,1.00
2022-11-21T17:30:21.855Z,1.00
2022-11-21T17:32:55.721Z,1.00
2022-11-21T17:35:33.289Z,1.00
2022-11-21T17:38:07.680Z,1.00
2022-11-21T17:40:41.701Z,1.00
2022-11-21T17:43:15.483Z,1.00
2022-11-21T17:45:50.819Z,1.00
2022-11-21T17:48:24.725Z,1.00
2022-11-21T17:51:26.294Z,1.00
2022-11-21T17:54:03.822Z,1.00
2022-11-21T17:56:45.086Z,1.00
2022-11-21T17:59:21.174Z,1.00
2022-11-21T18:01:53.988Z,1.00
2022-11-21T18:04:26.680Z,1.00
2022-11-21T18:07:00.601Z,1.00
2022-11-21T18:09:37.651Z,1.00
2022-11-21T18:12:11.583Z,1.00
2022-11-21T18:14:45.797Z,1.00
2022-11-21T18:17:19.588Z,1.00
2022-11-21T18:19:53.812Z,1.00
2022-11-21T18:22:29.670Z,1.00
2022-11-21T18:25:09.609Z,1.00
2022-11-21T18:27:46.396Z,1.00
2022-11-21T18:30:22.886Z,1.10
2022-11-21T18:32:57.409Z,1.10
2022-11-21T18:35:31.626Z,1.10
2022-11-21T18:38:06.735Z,1.10
2022-11-21T18:40:43.410Z,1.10
2022-11-21T18:43:17.648Z,1.10
2022-11-21T18:45:51.880Z,1.10
2022-11-21T18:48:27.690Z,1.10
2022-11-21T18:51:05.276Z,1.10
2022-11-21T18:53:39.721Z,1.10
2022-11-21T18:56:16.912Z,1.10
2022-11-21T18:58:55.584Z,1.10
2022-11-21T19:01:33.319Z,1.20
2022-11-21T19:04:07.967Z,1.20
2022-11-21T19:06:42.273Z,1.20
2022-11-21T19:09:17.593Z,1.20
2022-11-21T19:11:54.620Z,1.20
2022-11-21T19:14:30.020Z,1.20
2022-11-21T19:17:04.850Z,1.10
2022-11-21T19:19:38.837Z,1.10
2022-11-21T19:22:12.767Z,1.10
2022-11-21T19:24:46.549Z,1.00
2022-11-21T19:27:24.994Z,1.00
2022-11-21T19:30:06.897Z,1.00
2022-11-21T19:32:41.068Z,1.00
2022-11-21T19:35:15.095Z,1.00
2022-11-21T19:37:49.121Z,1.00
2022-11-21T19:40:23.160Z,1.00
2022-11-21T19:42:56.901Z,1.00
2022-11-21T19:45:34.675Z,0.90
2022-11-21T19:48:09.618Z,0.90
2022-11-21T19:50:49.966Z,0.90
2022-11-21T19:53:25.898Z,0.90
2022-11-21T19:55:59.943Z,0.90
2022-11-21T19:58:34.170Z,0.90
2022-11-21T20:01:12.258Z,0.90
2022-11-21T20:03:46.686Z,0.80
2022-11-21T20:06:22.080Z,0.80
2022-11-21T20:08:59.627Z,0.90
2022-11-21T20:11:34.748Z,1.00
2022-11-21T20:14:10.028Z,1.10
2022-11-21T20:16:48.785Z,1.10
2022-11-21T20:19:24.401Z,1.10
2022-11-21T20:21:59.539Z,1.00
2022-11-21T20:24:41.992Z,1.00
2022-11-21T20:27:18.287Z,1.00
2022-11-21T20:29:52.414Z,1.00
2022-11-21T20:32:28.677Z,0.90
2022-11-21T20:35:06.717Z,0.90
2022-11-21T20:37:41.750Z,0.90
2022-11-21T20:40:16.431Z,0.90
2022-11-21T20:42:50.741Z,0.90
2022-11-21T20:46:07.196Z,0.90
2022-11-21T20:48:21.005Z,0.90
2022-11-21T20:52:19.717Z,0.80
2022-11-21T20:53:58.614Z,0.80
2022-11-21T20:56:39.377Z,0.80
2022-11-21T20:59:15.994Z,0.80
2022-11-21T21:01:50.607Z,0.80
2022-11-21T21:04:26.903Z,0.80
2022-11-21T21:07:06.244Z,0.80
2022-11-21T21:09:44.581Z,0.80
2022-11-21T21:12:20.615Z,0.80
2022-11-21T21:14:53.360Z,0.80
2022-11-21T21:17:33.254Z,0.80
2022-11-21T21:20:09.636Z,0.80
2022-11-21T21:22:47.691Z,0.80
2022-11-21T21:25:22.602Z,0.70
2022-11-21T21:27:57.627Z,0.70
2022-11-21T21:30:33.252Z,0.70
2022-11-21T21:33:07.279Z,0.70
2022-11-21T21:35:41.741Z,0.70
2022-11-21T21:38:19.437Z,0.70
2022-11-21T21:40:59.105Z,0.70
2022-11-21T21:43:33.946Z,0.60
2022-11-21T21:46:11.507Z,0.60
2022-11-21T21:48:45.021Z,0.60
2022-11-21T21:51:19.794Z,0.60
2022-11-21T21:53:57.862Z,0.60
2022-11-21T21:56:35.441Z,0.50
2022-11-21T21:59:09.943Z,0.50
2022-11-21T22:01:47.964Z,0.50
2022-11-21T22:04:23.498Z,0.50
2022-11-21T22:06:56.262Z,0.40
2022-11-21T22:09:33.778Z,0.40
2022-11-21T22:12:09.120Z,0.40
2022-11-21T22:14:44.434Z,0.40
2022-11-21T22:17:20.555Z,0.40
2022-11-21T22:19:55.704Z,0.30
2022-11-21T22:22:32.340Z,0.30
2022-11-21T22:25:10.592Z,0.30
2022-11-21T22:27:46.057Z,0.30
2022-11-21T22:30:21.910Z,0.30
2022-11-21T22:32:56.508Z,0.30
2022-11-21T22:35:29.682Z,0.30
2022-11-21T22:38:04.941Z,0.30
2022-11-21T22:40:42.642Z,0.30
2022-11-21T22:43:17.659Z,0.30
2022-11-21T22:45:52.725Z,0.30
2022-11-21T22:48:27.569Z,0.30
2022-11-21T22:51:01.245Z,0.30
2022-11-21T22:53:40.140Z,0.30
2022-11-21T22:56:17.698Z,0.30
2022-11-21T22:58:54.088Z,0.30
2022-11-21T23:01:28.553Z,0.30
2022-11-21T23:04:01.640Z,0.30
2022-11-21T23:06:37.768Z,0.30
2022-11-21T23:09:16.164Z,0.30
2022-11-21T23:11:52.844Z,0.30
2022-11-21T23:14:27.441Z,0.30
2022-11-21T23:17:02.672Z,0.30
2022-11-21T23:19:38.620Z,0.30
2022-11-21T23:22:14.604Z,0.30
2022-11-21T23:24:49.721Z,0.40
2022-11-21T23:27:28.296Z,0.40
2022-11-21T23:30:02.559Z,0.40
2022-11-21T23:32:37.055Z,0.40
2022-11-21T23:35:11.804Z,0.40
2022-11-21T23:37:46.542Z,0.40
2022-11-21T23:40:24.219Z,0.40
2022-11-21T23:43:01.985Z,0.40
2022-11-21T23:45:38.284Z,0.40
2022-11-21T23:48:12.719Z,0.40
2022-11-21T23:50:51.490Z,0.50
2022-11-21T23:53:26.062Z,0.50
2022-11-21T23:56:01.182Z,0.50
2022-11-21T23:58:38.574Z,0.50
